Hampton Falls, New Hampshire
Current Conditions -  °F | °C
As of 1:58 AM on Sunday 26 Oct 2014 (Local Time) from KPSM Reporting Station
Overcast Overcast  
Wind Chill: 54°   Ceiling: 20000
Heat Index: 54°   Visibility: 10mi
Dew Point: 45°   Wind: 7mph
Humidity: 71%   Direction: 240°WSW
Pressure: 29.43"   Gusts: NA
Location:  42.92°N, 70.86°W
Report Text: KPSM 260558Z 24006KT 10SM FEW140 OVC200 12/07 A2943 RMK AO2A SLP969 T01210070 10132 20106 57020
Loading
Personal Weather Stations






























Interactive Weather Map New forecast layout! Learn more

10-Day Weather Forecast

Advertisements
Track Severe Weather on mobile